createdAt,value
2016-05-19T00:00:15.867Z,14.04
2016-05-19T00:01:16.026Z,14.15
2016-05-19T00:02:16.028Z,14.09
2016-05-19T00:03:16.015Z,14.15
2016-05-19T00:04:15.862Z,14.15
2016-05-19T00:05:30.586Z,14.1
2016-05-19T00:06:16.008Z,14.04
2016-05-19T00:07:17.638Z,14.14
2016-05-19T00:08:16.231Z,14.1
2016-05-19T00:09:16.000Z,14.12
2016-05-19T00:10:15.847Z,14.03
2016-05-19T00:11:16.006Z,14.12
2016-05-19T00:12:16.227Z,14.09
2016-05-19T00:13:15.995Z,14.07
2016-05-19T00:14:15.998Z,14.07
2016-05-19T00:16:16.769Z,13.96
2016-05-19T00:17:17.194Z,14.07
2016-05-19T00:18:16.087Z,14.04
2016-05-19T00:19:16.449Z,14.06
2016-05-19T00:20:16.186Z,14.06
2016-05-19T00:21:15.985Z,14
2016-05-19T00:22:16.191Z,13.97
2016-05-19T00:23:16.163Z,14.03
2016-05-19T00:24:15.977Z,14.03
2016-05-19T00:25:15.966Z,14.06
2016-05-19T00:26:15.968Z,14.03
2016-05-19T00:27:15.970Z,14.03
2016-05-19T00:28:15.973Z,14.09
2016-05-19T00:29:15.960Z,14.06
2016-05-19T00:30:15.963Z,14.07
2016-05-19T00:31:15.950Z,14.07
2016-05-19T00:32:15.828Z,13.99
2016-05-19T00:33:15.955Z,14
2016-05-19T00:34:15.958Z,13.96
2016-05-19T00:35:15.804Z,13.99
2016-05-19T00:36:15.964Z,14.02
2016-05-19T00:37:15.951Z,14
2016-05-19T00:38:15.797Z,13.91
2016-05-19T00:39:15.940Z,13.88
2016-05-19T00:40:15.787Z,13.97
2016-05-19T00:41:15.945Z,13.89
2016-05-19T00:42:15.933Z,13.97
2016-05-19T00:43:15.779Z,13.88
2016-05-19T00:44:15.781Z,13.85
2016-05-19T00:45:15.769Z,13.96
2016-05-19T00:46:15.928Z,13.89
2016-05-19T00:47:15.930Z,13.88
2016-05-19T00:48:15.917Z,13.88
2016-05-19T00:49:15.920Z,13.88
2016-05-19T00:50:15.922Z,13.89
2016-05-19T00:51:15.925Z,13.89
2016-05-19T00:52:15.757Z,13.87
2016-05-19T00:53:16.071Z,13.91
2016-05-19T00:54:15.902Z,13.89
2016-05-19T00:55:15.905Z,13.85
2016-05-19T00:56:15.908Z,13.89
2016-05-19T00:57:15.911Z,13.89
2016-05-19T00:58:15.898Z,13.89
2016-05-19T00:59:15.900Z,13.88
2016-05-19T01:00:15.904Z,13.85
2016-05-19T01:01:15.906Z,13.88
2016-05-19T01:02:15.736Z,13.87
2016-05-19T01:03:15.739Z,13.88
2016-05-19T01:04:15.882Z,13.84
2016-05-19T01:05:15.729Z,13.89
2016-05-19T01:06:15.888Z,13.81
2016-05-19T01:07:15.875Z,13.85
2016-05-19T01:08:16.159Z,13.89
2016-05-19T01:09:15.881Z,13.88
2016-05-19T01:10:15.867Z,13.87
2016-05-19T01:11:15.870Z,13.84
2016-05-19T01:12:16.466Z,13.85
2016-05-19T01:13:16.156Z,13.85
2016-05-19T01:14:16.316Z,13.87
2016-05-19T01:15:15.865Z,13.78
2016-05-19T01:16:15.696Z,13.84
2016-05-19T01:17:15.870Z,13.73
2016-05-19T01:18:15.858Z,13.81
2016-05-19T01:19:15.845Z,13.77
2016-05-19T01:20:15.847Z,13.82
2016-05-19T01:21:17.099Z,13.75
2016-05-19T01:22:16.994Z,13.7
2016-05-19T01:23:16.106Z,13.78
2016-05-19T01:24:30.266Z,13.77
2016-05-19T01:26:16.129Z,13.71
2016-05-19T01:27:15.835Z,13.69
2016-05-19T01:28:15.854Z,13.71
2016-05-19T01:29:16.043Z,13.73
2016-05-19T01:30:16.015Z,13.7
2016-05-19T01:31:15.815Z,13.73
2016-05-19T01:32:15.817Z,13.64
2016-05-19T01:33:15.820Z,13.69
2016-05-19T01:34:17.041Z,13.77
2016-05-19T01:35:15.965Z,13.66
2016-05-19T01:36:17.421Z,13.66
2016-05-19T01:37:15.815Z,13.7
2016-05-19T01:38:15.833Z,13.64
2016-05-19T01:39:16.524Z,13.73
2016-05-19T01:40:15.666Z,13.64
2016-05-19T01:41:15.809Z,13.67
2016-05-19T01:42:15.797Z,13.64
2016-05-19T01:43:15.800Z,13.6
2016-05-19T01:44:15.818Z,13.6
2016-05-19T01:45:15.790Z,13.6
2016-05-19T01:46:15.808Z,13.64
2016-05-19T01:47:15.623Z,13.62
2016-05-19T01:48:15.782Z,13.62
2016-05-19T01:49:15.785Z,13.49
2016-05-19T01:50:15.788Z,13.59
2016-05-19T01:51:15.775Z,13.6
2016-05-19T01:52:15.777Z,13.6
2016-05-19T01:53:15.639Z,13.51
2016-05-19T01:54:15.783Z,13.52
2016-05-19T01:55:15.769Z,13.52
2016-05-19T01:56:15.772Z,13.48
2016-05-19T01:57:15.619Z,13.51
2016-05-19T01:58:15.762Z,13.51
2016-05-19T01:59:15.749Z,13.62
2016-05-19T02:00:15.752Z,13.51
2016-05-19T02:01:15.754Z,13.62
2016-05-19T02:02:15.741Z,13.54
2016-05-19T02:03:15.743Z,13.6
2016-05-19T02:04:15.746Z,13.49
2016-05-19T02:05:15.735Z,13.57
2016-05-19T02:06:15.737Z,13.54
2016-05-19T02:07:15.739Z,13.52
2016-05-19T02:08:15.914Z,13.55
2016-05-19T02:09:15.745Z,13.44
2016-05-19T02:10:15.717Z,13.51
2016-05-19T02:11:15.735Z,13.52
2016-05-19T02:12:15.737Z,13.52
2016-05-19T02:13:15.725Z,13.52
2016-05-19T02:14:15.743Z,13.54
2016-05-19T02:15:15.730Z,13.51
2016-05-19T02:16:15.717Z,13.55
2016-05-19T02:17:15.719Z,13.49
2016-05-19T02:18:15.722Z,13.42
2016-05-19T02:19:15.709Z,13.51
2016-05-19T02:20:15.555Z,13.55
2016-05-19T02:21:15.714Z,13.49
2016-05-19T02:22:15.702Z,13.42
2016-05-19T02:23:15.813Z,13.44
2016-05-19T02:24:15.769Z,13.42
2016-05-19T02:25:15.686Z,13.51
2016-05-19T02:26:15.533Z,13.51
2016-05-19T02:27:15.551Z,13.44
2016-05-19T02:28:15.694Z,13.44
2016-05-19T02:29:15.682Z,13.49
2016-05-19T02:30:15.372Z,13.55
2016-05-19T02:31:29.861Z,13.55
2016-05-19T02:33:16.488Z,13.51
2016-05-19T02:34:15.679Z,13.46
2016-05-19T02:35:15.823Z,13.52
2016-05-19T02:36:15.513Z,13.44
2016-05-19T02:37:15.656Z,13.39
2016-05-19T02:38:15.659Z,13.46
2016-05-19T02:39:15.662Z,13.44
2016-05-19T02:40:16.836Z,13.52
2016-05-19T02:41:15.679Z,13.51
2016-05-19T02:42:16.163Z,13.49
2016-05-19T02:43:16.365Z,13.55
2016-05-19T02:44:16.474Z,13.46
2016-05-19T02:45:16.270Z,13.42
2016-05-19T02:46:15.719Z,13.52
2016-05-19T02:47:16.457Z,13.51
2016-05-19T02:48:16.693Z,13.42
2016-05-19T02:49:15.759Z,13.51
2016-05-19T02:50:16.370Z,13.51
2016-05-19T02:51:15.928Z,13.41
2016-05-19T02:52:15.937Z,13.41
2016-05-19T02:53:15.649Z,13.48
2016-05-19T02:54:16.875Z,13.38
2016-05-19T02:55:17.259Z,13.41
2016-05-19T02:56:16.874Z,13.45
2016-05-19T02:57:16.208Z,13.46
2016-05-19T02:58:16.665Z,13.42
2016-05-19T02:59:15.779Z,13.41
2016-05-19T03:00:15.784Z,13.45
2016-05-19T03:01:15.679Z,13.52
2016-05-19T03:02:15.932Z,13.46
2016-05-19T03:03:15.935Z,13.38
2016-05-19T03:04:15.923Z,13.49
2016-05-19T03:05:15.942Z,13.44
2016-05-19T03:06:15.946Z,13.46
2016-05-19T03:07:15.761Z,13.39
2016-05-19T03:08:15.919Z,13.44
2016-05-19T03:09:15.767Z,13.51
2016-05-19T03:10:15.754Z,13.44
2016-05-19T03:11:15.913Z,13.41
2016-05-19T03:12:15.916Z,13.49
2016-05-19T03:13:15.903Z,13.42
2016-05-19T03:14:15.906Z,13.38
2016-05-19T03:15:15.909Z,13.48
2016-05-19T03:16:15.896Z,13.41
2016-05-19T03:17:15.899Z,13.51
2016-05-19T03:18:15.902Z,13.41
2016-05-19T03:19:15.888Z,13.46
2016-05-19T03:20:15.891Z,13.51
2016-05-19T03:21:15.894Z,13.42
2016-05-19T03:22:15.880Z,13.49
2016-05-19T03:23:15.961Z,13.41
2016-05-19T03:24:15.885Z,13.55
2016-05-19T03:25:15.873Z,13.44
2016-05-19T03:26:15.876Z,13.52
2016-05-19T03:27:15.878Z,13.54
2016-05-19T03:28:15.865Z,13.52
2016-05-19T03:29:15.868Z,13.52
2016-05-19T03:30:15.871Z,13.52
2016-05-19T03:31:15.873Z,13.52
2016-05-19T03:32:15.860Z,13.62
2016-05-19T03:33:15.863Z,13.55
2016-05-19T03:34:15.695Z,13.57
2016-05-19T03:35:15.854Z,13.52
2016-05-19T03:36:15.700Z,13.57
2016-05-19T03:37:15.859Z,13.51
2016-05-19T03:38:15.845Z,13.54
2016-05-19T03:39:15.847Z,13.49
2016-05-19T03:40:15.836Z,13.51
2016-05-19T03:41:15.838Z,13.54
2016-05-19T03:42:15.841Z,13.54
2016-05-19T03:43:15.843Z,13.54
2016-05-19T03:44:15.830Z,13.51
2016-05-19T03:45:15.817Z,13.52
2016-05-19T03:46:15.835Z,13.52
2016-05-19T03:47:15.822Z,13.54
2016-05-19T03:48:15.810Z,13.54
2016-05-19T03:49:15.813Z,13.51
2016-05-19T03:50:15.831Z,13.42
2016-05-19T03:51:15.818Z,13.51
2016-05-19T03:52:16.305Z,13.48
2016-05-19T03:54:16.139Z,13.48
2016-05-19T03:57:17.381Z,13.55
2016-05-19T03:58:16.399Z,13.63
2016-05-19T04:03:17.365Z,13.54
2016-05-19T04:04:16.462Z,13.55
2016-05-19T04:05:15.809Z,13.54
2016-05-19T04:06:15.795Z,13.6
2016-05-19T04:07:16.564Z,13.63
2016-05-19T04:08:15.911Z,13.54
2016-05-19T04:09:15.757Z,13.63
2016-05-19T04:10:15.760Z,13.67
2016-05-19T04:11:15.762Z,13.63
2016-05-19T04:12:17.250Z,13.63
2016-05-19T04:13:16.596Z,13.63
2016-05-19T04:14:17.302Z,13.63
2016-05-19T04:15:16.319Z,13.62
2016-05-19T04:16:16.369Z,13.67
2016-05-19T04:17:15.747Z,13.6
2016-05-19T04:18:16.188Z,13.67
2016-05-19T04:19:15.596Z,13.75
2016-05-19T04:20:15.583Z,13.73
2016-05-19T04:21:15.741Z,13.71
2016-05-19T04:22:15.573Z,13.82
2016-05-19T04:23:15.732Z,13.71
2016-05-19T04:24:15.735Z,13.82
2016-05-19T04:25:15.566Z,13.85
2016-05-19T04:26:15.568Z,13.82
2016-05-19T04:27:15.727Z,13.87
2016-05-19T04:28:15.730Z,13.84
2016-05-19T04:29:16.327Z,13.85
2016-05-19T04:32:16.491Z,13.91
2016-05-19T04:44:15.695Z,14.27
2016-05-19T04:45:15.681Z,14.22
2016-05-19T04:46:15.700Z,14.29
2016-05-19T04:47:15.702Z,14.25
2016-05-19T04:48:15.675Z,14.33
2016-05-19T04:55:15.506Z,14.57
2016-05-19T04:56:15.665Z,14.52
2016-05-19T04:57:15.510Z,14.62
2016-05-19T04:58:15.499Z,14.6
2016-05-19T04:59:15.501Z,14.68
2016-05-19T05:00:15.660Z,14.64
2016-05-19T05:01:15.679Z,14.72
2016-05-19T05:02:15.649Z,14.81
2016-05-19T05:03:15.652Z,14.86
2016-05-19T05:04:15.654Z,14.8
2016-05-19T05:05:15.642Z,14.86
2016-05-19T05:06:15.645Z,14.84
2016-05-19T05:07:15.491Z,14.92
2016-05-19T05:08:29.918Z,14.98
2016-05-19T05:09:16.590Z,14.91
2016-05-19T05:10:15.937Z,15.09
2016-05-19T05:11:16.392Z,15.06
2016-05-19T05:12:16.786Z,15.16
2016-05-19T05:38:15.403Z,16.01
2016-05-19T05:39:15.609Z,16.01
2016-05-19T05:40:15.596Z,16.05
2016-05-19T05:41:15.598Z,16.11
2016-05-19T05:42:15.601Z,16.17
2016-05-19T05:43:15.604Z,16.24
2016-05-19T05:44:15.591Z,16.25
2016-05-19T05:45:15.593Z,16.35
2016-05-19T05:46:15.596Z,16.31
2016-05-19T05:47:15.598Z,16.43
2016-05-19T05:48:15.445Z,16.48
2016-05-19T05:49:15.603Z,16.52
2016-05-19T05:50:15.592Z,16.58
2016-05-19T05:51:15.594Z,16.49
2016-05-19T05:52:15.441Z,16.64
2016-05-19T05:53:17.522Z,16.76
2016-05-19T05:54:15.602Z,16.75
2016-05-19T05:55:15.589Z,16.79
2016-05-19T05:56:15.592Z,16.83
2016-05-19T05:57:15.594Z,16.93
2016-05-19T05:58:15.597Z,16.89
2016-05-19T05:59:15.584Z,16.94
2016-05-19T06:00:15.587Z,16.96
2016-05-19T06:01:15.590Z,17.01
2016-05-19T06:02:15.608Z,17.03
2016-05-19T06:03:15.439Z,17.06
2016-05-19T06:04:15.598Z,17.04
2016-05-19T06:05:15.601Z,17.11
2016-05-19T06:06:15.588Z,17.12
2016-05-19T06:07:15.434Z,17.14
2016-05-19T06:08:15.609Z,17.18
2016-05-19T06:09:15.595Z,17.15
2016-05-19T06:10:15.582Z,17.12
2016-05-19T06:11:15.585Z,17.12
2016-05-19T06:12:15.587Z,17.21
2016-05-19T06:13:15.590Z,17.23
2016-05-19T06:14:15.593Z,17.33
2016-05-19T06:15:15.424Z,17.28
2016-05-19T06:16:15.443Z,17.4
2016-05-19T06:17:15.586Z,17.37
2016-05-19T06:18:15.589Z,17.46
2016-05-19T06:19:15.591Z,17.59
2016-05-19T06:20:15.594Z,17.64
2016-05-19T06:21:15.596Z,17.71
2016-05-19T06:22:15.584Z,17.75
2016-05-19T06:23:15.430Z,17.9
2016-05-19T06:24:15.589Z,17.89
2016-05-19T06:25:15.280Z,18.1
2016-05-19T06:26:15.595Z,18.12
2016-05-19T06:27:29.769Z,18.2
2016-05-19T06:28:16.240Z,18.23
2016-05-19T06:29:16.383Z,18.29
2016-05-19T06:30:16.246Z,18.36
2016-05-19T06:31:30.170Z,18.51
2016-05-19T06:32:15.439Z,18.55
2016-05-19T06:33:15.597Z,18.69
2016-05-19T06:34:15.647Z,18.76
2016-05-19T06:35:15.603Z,18.81
2016-05-19T06:36:15.605Z,18.94
2016-05-19T06:37:15.452Z,18.94
2016-05-19T06:38:15.610Z,19
2016-05-19T06:39:15.863Z,19.02
2016-05-19T06:40:16.366Z,19.07
2016-05-19T06:41:17.166Z,19.11
2016-05-19T06:42:17.184Z,19.11
2016-05-19T06:43:16.578Z,19.18
2016-05-19T06:44:15.784Z,19.13
2016-05-19T06:45:16.021Z,19.14
2016-05-19T06:46:15.929Z,19.21
2016-05-19T06:47:15.760Z,19.25
2016-05-19T06:48:15.467Z,19.32
2016-05-19T06:49:15.719Z,19.41
2016-05-19T06:50:15.627Z,19.51
2016-05-19T06:51:16.974Z,19.56
2016-05-19T06:52:15.617Z,19.56
2016-05-19T06:53:15.480Z,19.68
2016-05-19T06:54:15.467Z,19.68
2016-05-19T06:55:15.641Z,19.8
2016-05-19T06:56:15.472Z,19.86
2016-05-19T06:57:15.647Z,19.91
2016-05-19T06:58:15.650Z,20.08
2016-05-19T06:59:15.635Z,20.06
2016-05-19T07:00:15.655Z,20.23
2016-05-19T07:01:15.641Z,20.47
2016-05-19T07:02:15.644Z,20.64
2016-05-19T07:03:15.490Z,20.82
2016-05-19T07:04:15.665Z,20.98
2016-05-19T07:05:15.668Z,21.13
2016-05-19T07:06:15.671Z,21.17
2016-05-19T07:07:15.517Z,21.24
2016-05-19T07:08:15.660Z,21.44
2016-05-19T07:09:15.523Z,21.61
2016-05-19T07:10:15.681Z,21.86
2016-05-19T07:11:15.528Z,21.96
2016-05-19T07:12:15.702Z,22.21
2016-05-19T07:13:15.533Z,22.33
2016-05-19T07:14:15.692Z,22.47
2016-05-19T07:15:15.695Z,22.52
2016-05-19T07:16:15.712Z,22.61
2016-05-19T07:17:15.715Z,22.75
2016-05-19T07:18:15.718Z,22.86
2016-05-19T07:19:15.721Z,22.94
2016-05-19T07:20:15.723Z,23.05
2016-05-19T07:21:15.742Z,23.17
2016-05-19T07:22:15.745Z,23.31
2016-05-19T07:23:15.606Z,23.54
2016-05-19T07:24:15.750Z,23.63
2016-05-19T07:25:15.769Z,23.69
2016-05-19T07:26:15.772Z,23.83
2016-05-19T07:27:15.617Z,23.79
2016-05-19T07:28:15.777Z,24.08
2016-05-19T07:29:15.780Z,24.21
2016-05-19T07:30:15.798Z,24.45
2016-05-19T07:31:15.816Z,24.77
2016-05-19T07:32:16.991Z,25
2016-05-19T07:33:15.821Z,25.24
2016-05-19T07:34:15.824Z,25.4
2016-05-19T07:35:15.686Z,25.58
2016-05-19T07:36:15.846Z,25.7
2016-05-19T07:37:15.848Z,25.85
2016-05-19T07:38:16.288Z,25.88
2016-05-19T07:39:15.868Z,25.87
2016-05-19T07:40:15.887Z,25.82
2016-05-19T07:41:15.890Z,25.72
2016-05-19T07:42:15.892Z,25.69
2016-05-19T07:43:15.910Z,25.73
2016-05-19T07:44:15.929Z,25.73
2016-05-19T07:45:15.931Z,25.7
2016-05-19T07:46:17.341Z,25.79
2016-05-19T07:47:30.125Z,25.91
2016-05-19T07:48:16.080Z,26.12
2016-05-19T07:49:16.177Z,26.37
2016-05-19T07:50:15.837Z,26.6
2016-05-19T07:51:15.995Z,26.8
2016-05-19T07:52:16.092Z,26.97
2016-05-19T07:53:16.187Z,27.13
2016-05-19T07:54:16.034Z,27.54
2016-05-19T07:56:16.899Z,27.88
2016-05-19T07:57:16.167Z,27.99
2016-05-19T07:58:16.451Z,28.07
2016-05-19T07:59:17.172Z,28.15
2016-05-19T08:00:16.113Z,28.21
2016-05-19T08:01:16.116Z,28.4
2016-05-19T08:02:16.977Z,28.54
2016-05-19T08:03:16.136Z,28.7
2016-05-19T08:04:15.998Z,28.98
2016-05-19T08:05:16.173Z,28.9
2016-05-19T08:06:16.426Z,29.02
2016-05-19T08:07:16.179Z,29.19
2016-05-19T08:08:16.791Z,29.28
2016-05-19T08:09:18.544Z,29.43
2016-05-19T08:10:16.468Z,29.43
2016-05-19T08:11:16.799Z,29.48
2016-05-19T08:12:16.254Z,29.64
2016-05-19T08:13:16.695Z,29.74
2016-05-19T08:14:16.276Z,29.85
2016-05-19T08:15:16.278Z,29.95
2016-05-19T08:16:16.421Z,30.08
2016-05-19T08:17:16.315Z,30.24
2016-05-19T08:18:16.334Z,30.31
2016-05-19T08:19:16.336Z,30.49
2016-05-19T08:20:16.354Z,30.49
2016-05-19T08:21:16.372Z,30.53
2016-05-19T08:22:16.219Z,30.61
2016-05-19T08:23:16.909Z,30.75
2016-05-19T08:24:16.411Z,30.88
2016-05-19T08:25:16.430Z,30.88
2016-05-19T08:26:16.432Z,30.73
2016-05-19T08:27:16.466Z,30.45
2016-05-19T08:28:16.469Z,30.47
2016-05-19T08:29:16.488Z,30.39
2016-05-19T08:30:16.350Z,30.51
2016-05-19T08:31:16.508Z,30.62
2016-05-19T08:32:16.527Z,30.82
2016-05-19T08:33:16.530Z,31.02
2016-05-19T08:34:16.579Z,30.98
2016-05-19T08:35:16.567Z,31.07
2016-05-19T08:36:16.428Z,30.98
2016-05-19T08:37:16.619Z,31.02
2016-05-19T08:38:16.621Z,30.89
2016-05-19T08:39:17.030Z,30.86
2016-05-19T08:40:16.642Z,30.77
2016-05-19T08:41:16.660Z,30.79
2016-05-19T08:42:16.679Z,30.76
2016-05-19T08:43:16.697Z,30.75
2016-05-19T08:44:16.700Z,30.84
2016-05-19T08:45:16.718Z,30.72
2016-05-19T08:46:16.737Z,30.57
2016-05-19T08:47:16.739Z,30.46
2016-05-19T08:48:16.773Z,30.17
2016-05-19T08:49:16.791Z,29.92
2016-05-19T08:50:16.637Z,29.78
2016-05-19T08:51:16.640Z,29.67
2016-05-19T08:52:16.815Z,29.43
2016-05-19T08:53:16.677Z,29.27
2016-05-19T08:54:17.398Z,29.04
2016-05-19T08:55:16.698Z,28.92
2016-05-19T08:56:16.873Z,28.68
2016-05-19T08:57:16.891Z,28.46
2016-05-19T08:58:16.894Z,28.37
2016-05-19T08:59:16.755Z,28.21
2016-05-19T09:00:16.930Z,27.96
2016-05-19T09:01:16.933Z,27.75
2016-05-19T09:02:16.936Z,27.44
2016-05-19T09:03:16.970Z,27.1
2016-05-19T09:04:17.035Z,27
2016-05-19T09:05:17.085Z,26.8
2016-05-19T09:06:16.994Z,26.62
2016-05-19T09:07:31.480Z,26.39
2016-05-19T09:08:17.045Z,26.23
2016-05-19T09:09:16.891Z,26.01
2016-05-19T09:10:17.035Z,25.87
2016-05-19T09:11:17.054Z,25.72
2016-05-19T09:12:17.056Z,25.58
2016-05-19T09:13:17.060Z,25.46
2016-05-19T09:14:17.374Z,25.17
2016-05-19T09:15:17.282Z,25.23
2016-05-19T09:16:17.193Z,25.13
2016-05-19T09:17:17.773Z,24.84
2016-05-19T09:18:18.276Z,24.81
2016-05-19T09:19:17.575Z,24.6
2016-05-19T09:20:16.969Z,24.5
2016-05-19T09:21:17.237Z,24.35
2016-05-19T09:22:17.130Z,24.09
2016-05-19T09:23:17.242Z,23.87
2016-05-19T09:24:17.323Z,23.65
2016-05-19T09:25:17.217Z,23.53
2016-05-19T09:26:17.016Z,23.5
2016-05-19T09:27:19.534Z,23.47
2016-05-19T09:28:17.192Z,23.39
2016-05-19T09:29:17.180Z,23.32
2016-05-19T09:30:17.042Z,23.28
2016-05-19T09:31:17.639Z,23.28
2016-05-19T09:32:17.579Z,23.32
2016-05-19T09:33:17.238Z,23.19
2016-05-19T09:34:17.225Z,23.31
2016-05-19T09:35:17.227Z,23.4
2016-05-19T09:36:17.089Z,23.5
2016-05-19T09:37:17.232Z,23.5
2016-05-19T09:38:17.502Z,23.55
2016-05-19T09:39:17.598Z,23.69
2016-05-19T09:40:17.257Z,23.66
2016-05-19T09:41:17.260Z,23.79
2016-05-19T09:42:17.277Z,23.85
2016-05-19T09:43:17.124Z,23.85
2016-05-19T09:44:17.283Z,23.85
2016-05-19T09:45:17.285Z,23.79
2016-05-19T09:46:17.288Z,23.94
2016-05-19T09:47:17.291Z,23.95
2016-05-19T09:48:17.310Z,24.13
2016-05-19T09:49:17.312Z,24.12
2016-05-19T09:50:17.159Z,24.24
2016-05-19T09:51:17.162Z,24.25
2016-05-19T09:52:17.336Z,24.32
2016-05-19T09:53:17.339Z,24.34
2016-05-19T09:54:18.060Z,24.47
2016-05-19T09:55:17.187Z,24.49
2016-05-19T09:56:17.347Z,24.46
2016-05-19T09:57:17.365Z,24.45
2016-05-19T09:58:17.367Z,24.4
2016-05-19T09:59:17.386Z,24.18
2016-05-19T10:00:17.389Z,24.2
2016-05-19T10:01:17.235Z,24.22
2016-05-19T10:02:17.394Z,24.18
2016-05-19T10:03:17.241Z,24.25
2016-05-19T10:04:17.244Z,24.35
2016-05-19T10:05:17.417Z,24.31
2016-05-19T10:06:17.420Z,24.43
2016-05-19T10:07:17.423Z,24.32
2016-05-19T10:08:17.114Z,24.37
2016-05-19T10:09:17.741Z,24.25
2016-05-19T10:10:17.291Z,24.35
2016-05-19T10:11:17.449Z,24.15
2016-05-19T10:12:17.343Z,24.18
2016-05-19T10:13:17.471Z,24.25
2016-05-19T10:14:17.474Z,24.09
2016-05-19T10:15:17.319Z,24.15
2016-05-19T10:16:17.338Z,24.21
2016-05-19T10:17:17.341Z,24.3
2016-05-19T10:18:17.343Z,24.52
2016-05-19T10:19:17.502Z,24.65
2016-05-19T10:20:17.365Z,24.73
2016-05-19T10:21:17.524Z,24.8
2016-05-19T10:22:17.526Z,24.81
2016-05-19T10:23:17.529Z,24.84
2016-05-19T10:24:17.468Z,24.77
2016-05-19T10:25:18.675Z,24.9
2016-05-19T10:26:31.881Z,24.99
2016-05-19T10:27:17.931Z,25.03
2016-05-19T10:28:31.745Z,25.2
2016-05-19T10:29:17.920Z,25.18
2016-05-19T10:30:17.579Z,25.18
2016-05-19T10:31:17.581Z,25.23
2016-05-19T10:32:17.584Z,25.27
2016-05-19T10:33:19.306Z,25.24
2016-05-19T10:34:18.200Z,25.14
2016-05-19T10:35:18.170Z,25.14
2016-05-19T10:36:18.892Z,25.17
2016-05-19T10:37:17.613Z,25.2
2016-05-19T10:38:18.741Z,25.24
2016-05-19T10:39:18.791Z,25.21
2016-05-19T10:40:18.497Z,25.17
2016-05-19T10:41:17.655Z,25.15
2016-05-19T10:42:17.877Z,25.15
2016-05-19T10:43:17.661Z,25.2
2016-05-19T10:44:17.679Z,25.1
2016-05-19T10:45:18.744Z,25.08
2016-05-19T10:46:18.935Z,25.05
2016-05-19T10:47:18.469Z,24.91
2016-05-19T10:48:17.705Z,24.98
2016-05-19T10:49:18.427Z,24.95
2016-05-19T10:50:18.523Z,24.95
2016-05-19T10:51:17.729Z,24.9
2016-05-19T10:52:17.732Z,24.95
2016-05-19T10:53:17.813Z,24.95
2016-05-19T10:54:17.753Z,24.98
2016-05-19T10:55:17.740Z,25.09
2016-05-19T10:56:17.602Z,25.02
2016-05-19T10:57:17.761Z,24.99
2016-05-19T10:58:17.622Z,24.91
2016-05-19T10:59:17.626Z,24.85
2016-05-19T11:00:17.785Z,24.71
2016-05-19T11:01:17.787Z,24.77
2016-05-19T11:02:17.790Z,24.77
2016-05-19T11:03:17.808Z,24.71
2016-05-19T11:04:17.655Z,24.78
2016-05-19T11:05:17.813Z,24.78
2016-05-19T11:06:17.831Z,24.95
2016-05-19T11:07:17.834Z,25.03
2016-05-19T11:08:17.681Z,25.15
2016-05-19T11:09:17.700Z,25.23
2016-05-19T11:10:17.842Z,25.38
2016-05-19T11:11:17.860Z,25.35
2016-05-19T11:12:17.707Z,25.36
2016-05-19T11:13:17.867Z,25.36
2016-05-19T11:14:17.869Z,25.38
2016-05-19T11:15:17.888Z,25.47
2016-05-19T11:16:17.890Z,25.55
2016-05-19T11:17:17.752Z,25.6
2016-05-19T11:18:17.895Z,25.7
2016-05-19T11:19:17.913Z,25.79
2016-05-19T11:20:17.916Z,25.91
2016-05-19T11:21:17.935Z,25.9
2016-05-19T11:22:17.781Z,26.05
2016-05-19T11:23:17.940Z,26.15
2016-05-19T11:24:17.818Z,26.2
2016-05-19T11:25:17.962Z,26.29
2016-05-19T11:26:17.979Z,26.37
2016-05-19T11:27:17.982Z,26.43
2016-05-19T11:28:17.985Z,26.37
2016-05-19T11:29:17.988Z,26.3
2016-05-19T11:30:18.021Z,26.33
2016-05-19T11:31:18.024Z,26.23
2016-05-19T11:32:18.011Z,26.21
2016-05-19T11:33:18.029Z,26.06
2016-05-19T11:34:18.031Z,26.09
2016-05-19T11:35:18.034Z,26.05
2016-05-19T11:36:17.897Z,25.99
2016-05-19T11:37:18.056Z,26.05
2016-05-19T11:38:17.917Z,25.9
2016-05-19T11:39:18.077Z,25.83
2016-05-19T11:40:18.079Z,25.87
2016-05-19T11:41:18.082Z,25.77
2016-05-19T11:42:18.195Z,25.7
2016-05-19T11:43:19.400Z,25.87
2016-05-19T11:44:17.793Z,25.82
2016-05-19T11:45:18.202Z,25.92
2016-05-19T11:46:18.158Z,26.05
2016-05-19T11:47:18.012Z,26.07
2016-05-19T11:48:18.210Z,26.07
2016-05-19T11:49:18.284Z,26.15
2016-05-19T11:50:18.313Z,26.29
2016-05-19T11:51:19.558Z,26.43
2016-05-19T11:52:18.984Z,26.55
2016-05-19T11:53:18.407Z,26.5
2016-05-19T11:54:18.924Z,26.62
2016-05-19T11:55:18.801Z,26.62
2016-05-19T11:56:19.255Z,26.55
2016-05-19T11:57:19.467Z,26.47
2016-05-19T11:58:19.038Z,26.35
2016-05-19T11:59:18.530Z,26.18
2016-05-19T12:00:18.398Z,26.09
2016-05-19T12:01:18.563Z,26.13
2016-05-19T12:02:18.583Z,26.25
2016-05-19T12:03:18.681Z,26.2
2016-05-19T12:04:18.591Z,26.25
2016-05-19T12:05:18.581Z,26.25
2016-05-19T12:06:19.898Z,26.23
2016-05-19T12:07:18.448Z,26.28
2016-05-19T12:08:18.608Z,26.36
2016-05-19T12:09:19.158Z,26.43
2016-05-19T12:10:18.614Z,26.44
2016-05-19T12:11:18.634Z,26.39
2016-05-19T12:12:18.668Z,26.39
2016-05-19T12:13:18.656Z,26.45
2016-05-19T12:14:18.674Z,26.54
2016-05-19T12:15:19.146Z,26.63
2016-05-19T12:16:18.666Z,26.69
2016-05-19T12:17:18.527Z,26.66
2016-05-19T12:18:18.686Z,26.62
2016-05-19T12:19:18.689Z,26.63
2016-05-19T12:20:18.738Z,26.6
2016-05-19T12:21:18.709Z,26.4
2016-05-19T12:22:18.727Z,26.18
2016-05-19T12:23:18.730Z,26.02
2016-05-19T12:24:19.030Z,25.95
2016-05-19T12:25:18.735Z,25.79
2016-05-19T12:26:18.598Z,25.87
2016-05-19T12:27:18.757Z,25.75
2016-05-19T12:28:18.619Z,25.83
2016-05-19T12:29:18.778Z,25.85
2016-05-19T12:30:18.796Z,25.83
2016-05-19T12:31:18.799Z,25.82
2016-05-19T12:32:18.646Z,25.92
2016-05-19T12:33:18.804Z,25.9
2016-05-19T12:34:18.823Z,25.94
2016-05-19T12:35:18.809Z,26.05
2016-05-19T12:36:18.828Z,25.98
2016-05-19T12:37:18.831Z,26.01
2016-05-19T12:38:18.865Z,25.9
2016-05-19T12:39:18.695Z,25.77
2016-05-19T12:40:18.870Z,25.67
2016-05-19T12:41:18.873Z,25.64
2016-05-19T12:42:18.704Z,25.61
2016-05-19T12:43:18.722Z,25.62
2016-05-19T12:44:18.881Z,25.6
2016-05-19T12:45:18.899Z,25.54
2016-05-19T12:46:18.902Z,25.43
2016-05-19T12:47:18.905Z,25.47
2016-05-19T12:48:18.907Z,25.5
2016-05-19T12:49:18.769Z,25.43
2016-05-19T12:50:18.944Z,25.47
2016-05-19T12:51:18.931Z,25.39
2016-05-19T12:52:18.808Z,25.18
2016-05-19T12:53:18.983Z,25.14
2016-05-19T12:54:19.143Z,25.15
2016-05-19T12:55:18.957Z,25.09
2016-05-19T12:56:18.819Z,25.02
2016-05-19T12:57:18.979Z,25.02
2016-05-19T12:58:18.824Z,25.09
2016-05-19T12:59:18.985Z,25.13
2016-05-19T13:00:19.002Z,25.2
2016-05-19T13:01:33.927Z,25.14
2016-05-19T13:02:19.007Z,25.13
2016-05-19T13:03:19.010Z,25.06
2016-05-19T13:04:18.965Z,25.09
2016-05-19T13:05:19.031Z,25.13
2016-05-19T13:06:18.893Z,25.08
2016-05-19T13:07:18.881Z,25.05
2016-05-19T13:08:19.056Z,25.13
2016-05-19T13:09:19.964Z,25.15
2016-05-19T13:10:19.967Z,25.17
2016-05-19T13:11:19.094Z,25.32
2016-05-19T13:12:19.722Z,25.3
2016-05-19T13:13:19.631Z,25.35
2016-05-19T13:14:19.337Z,25.33
2016-05-19T13:15:19.964Z,25.42
2016-05-19T13:16:19.122Z,25.55
2016-05-19T13:17:20.282Z,25.62
2016-05-19T13:18:19.129Z,25.72
2016-05-19T13:19:19.131Z,25.85
2016-05-19T13:20:19.228Z,25.9
2016-05-19T13:21:19.136Z,26.01
2016-05-19T13:22:19.139Z,26.13
2016-05-19T13:23:20.002Z,26.23
2016-05-19T13:24:19.160Z,26.23
2016-05-19T13:25:19.632Z,26.37
2016-05-19T13:26:19.666Z,26.36
2016-05-19T13:27:19.169Z,26.44
2016-05-19T13:28:19.969Z,26.62
2016-05-19T13:29:19.189Z,26.66
2016-05-19T13:30:19.348Z,26.8
2016-05-19T13:31:19.038Z,26.85
2016-05-19T13:32:19.213Z,26.81
2016-05-19T13:33:19.231Z,26.92
2016-05-19T13:34:19.078Z,26.97
2016-05-19T13:35:19.237Z,27.04
2016-05-19T13:36:19.271Z,27.06
2016-05-19T13:37:19.258Z,27
2016-05-19T13:38:19.276Z,27.02
2016-05-19T13:39:19.779Z,27.02
2016-05-19T13:40:19.297Z,27.1
2016-05-19T13:41:19.144Z,27.22
2016-05-19T13:42:19.287Z,27.25
2016-05-19T13:43:19.306Z,27.24
2016-05-19T13:44:19.308Z,27.12
2016-05-19T13:45:19.326Z,27.22
2016-05-19T13:46:19.329Z,27.28
2016-05-19T13:47:19.331Z,27.31
2016-05-19T13:48:19.194Z,27.32
2016-05-19T13:49:19.353Z,27.1
2016-05-19T13:50:19.355Z,27.18